Salina Gunnison

About
Name: Salina Gunnison
Identifier:  SBO/KSBO
Serves:  Salina & Gunnison , Utah
Owner:  Cities of Salina & Gunnison
Public/Private:  Public
Local Time:  18. Aug 07:13 MDT
Description: Salina-Gunnison Airport is a public-use airport located five nautical miles northeast of the central business district of Salina, a city in Sevier County, Utah, United States. It is owned by the cities of Salina and Gunnison.
Source: Wikipedia
Location
Runways
Identifier Length (m/ft) Surface
2/20 3,855/3,855 Asphalt
Flights per Day
0 flights
Distance: 2,973km (1,847mi)
Punctuality
0% (0 flights per day delayed)
Delay Average: 6 minutes
Current Weather
 25 C (Humidity: 88%)
  4kt (7km/h / 4mph) from 220°
  Overcast at 600 feet (182 meter)
  16km (10 mi.)
 METAR KSBO 181255Z AUTO 22004KT 10SM OVC006 25/23 A3008 RMK AO2 LTG DSNT E

Current Flights

Departures
Number Departure To Airline
Arrivals
Number Arrival From Airline

Current Delays

Departures
N/A
Arrivals
N/A

Destinations

Top Destinations
Airport Flights
per week
Seats
per week
  Columbia (CAE) 6 - 0 0
  Atlanta (PDK) 0 - 0 0
  Kissimmee (ISM) 0 - 0 0
  Savannah (SAV) 0 - 0 0
  Beckley (BKW) 0 - 0 0
  Hilton Head Island (HHH) 0 - 0 0
  Trenton (TTN) 0 - 0 0

Airlines & Planes

Top Airlines
Airline Flights
per Day
Seats
per Day
Air Cargo Carriers 0 -
  Nolinor Aviation 0 -
  National Airlines 0 -
Top Plane Types
Model Flights Seats
Short 360 0.9/day - 0
Beech E90 King Air 0.1/day - 0
Cirrus SR22 0.1/day - 0